Time;durP1;ratioP1;P1;durP2;ratioP2;P2;SDS_P1;SDS_P2;PMS_P1;PMS_P2;Temp;Humidity;BMP_temperature;BMP_pressure;BME280_temperature;BME280_humidity;BME280_pressure;Samples;Min_cycle;Max_cycle;Signal;HPM_P1;HPM_P2
2022/09/21 00:01:10;;;;;;;6.87;4.10;;;;;;;7.88;nan;98894.25;5036621;28;20253;-70
2022/09/21 00:03:37;;;;;;;6.03;3.97;;;;;;;7.82;nan;98894.16;5037131;28;20205;-70
2022/09/21 00:06:05;;;;;;;7.10;4.23;;;;;;;7.89;nan;98908.34;5037131;28;20206;-70
2022/09/21 00:08:33;;;;;;;5.80;4.03;;;;;;;7.77;nan;98905.31;5037062;28;20210;-70
2022/09/21 00:10:59;;;;;;;8.87;4.27;;;;;;;7.87;nan;98897.13;5036803;28;20228;-70
2022/09/21 00:13:27;;;;;;;14.70;5.20;;;;;;;7.88;nan;98899.56;5036723;28;20252;-70
2022/09/21 00:15:57;;;;;;;24.67;5.80;;;;;;;7.90;nan;98891.44;5036407;28;20244;-70
2022/09/21 00:18:23;;;;;;;25.63;6.60;;;;;;;7.81;nan;98895.19;5036628;28;20202;-70
2022/09/21 00:20:51;;;;;;;29.97;5.90;;;;;;;7.75;nan;98888.81;5036415;28;20313;-70
2022/09/21 00:23:17;;;;;;;11.00;5.50;;;;;;;7.73;nan;98895.25;5036530;28;20241;-70
2022/09/21 00:25:44;;;;;;;20.37;6.40;;;;;;;6.16;nan;98642.56;5036506;28;20201;-70
2022/09/21 00:28:10;;;;;;;15.00;5.37;;;;;;;7.64;nan;98906.94;5036406;28;20213;-70
2022/09/21 00:30:38;;;;;;;13.57;5.43;;;;;;;7.68;nan;98903.75;5036014;28;20245;-70
2022/09/21 00:33:04;;;;;;;16.60;5.90;;;;;;;7.73;nan;98889.97;5036351;28;20224;-70
2022/09/21 00:35:32;;;;;;;13.50;5.97;;;;;;;7.62;nan;98895.69;5036331;28;20205;-70
2022/09/21 00:38:03;;;;;;;11.00;5.27;;;;;;;7.64;nan;98891.88;5036259;28;20298;-70
2022/09/21 00:40:30;;;;;;;9.87;5.30;;;;;;;7.65;nan;98892.72;5036199;28;20234;-70
2022/09/21 00:43:17;;;;;;;8.23;5.50;;;;;;;7.66;nan;98897.00;5036108;28;20228;-70
2022/09/21 00:45:46;;;;;;;10.80;6.10;;;;;;;7.65;nan;98887.41;5036133;28;20190;-70
2022/09/21 00:48:13;;;;;;;10.87;5.53;;;;;;;7.64;nan;98893.72;5034976;28;20242;-70
2022/09/21 00:50:46;;;;;;;9.80;6.20;;;;;;;7.68;nan;98898.44;5035981;28;20586;-70
2022/09/21 00:53:14;;;;;;;9.67;6.00;;;;;;;7.68;nan;98892.31;5036273;28;20190;-70
2022/09/21 00:55:45;;;;;;;9.20;6.00;;;;;;;7.53;nan;98897.63;5035846;28;20575;-70
2022/09/21 00:58:17;;;;;;;8.47;6.17;;;;;;;7.69;nan;98891.34;5035452;28;20637;-70
2022/09/21 01:00:43;;;;;;;8.97;6.10;;;;;;;7.66;nan;98895.19;5035613;28;20232;-70
2022/09/21 01:03:13;;;;;;;12.83;5.93;;;;;;;7.56;nan;98888.50;5035652;28;20201;-71
2022/09/21 01:05:39;;;;;;;8.40;5.50;;;;;;;7.54;nan;98893.13;5035299;28;20698;-70
2022/09/21 01:08:11;;;;;;;9.40;5.60;;;;;;;7.33;nan;98898.28;5036204;28;20202;-70
2022/09/21 01:11:07;;;;;;;8.10;5.93;;;;;;;7.37;nan;98881.06;5035140;28;20268;-70
2022/09/21 01:14:00;;;;;;;7.53;5.67;;;;;;;7.45;nan;98895.03;5031222;28;20210;-70
2022/09/21 01:16:37;;;;;;;12.20;5.83;;;;;;;7.44;nan;98892.56;5036034;28;20191;-70
2022/09/21 01:19:19;;;;;;;7.70;5.70;;;;;;;7.46;nan;98887.94;5034795;28;20201;-70
2022/09/21 01:22:07;;;;;;;8.13;5.83;;;;;;;7.51;nan;98886.38;5035293;28;20214;-70
2022/09/21 01:24:45;;;;;;;7.93;5.63;;;;;;;7.51;nan;98890.84;5034137;28;20687;-70
2022/09/21 01:27:17;;;;;;;12.20;6.00;;;;;;;7.38;nan;98885.34;5034169;28;20189;-70
2022/09/21 01:29:50;;;;;;;10.47;5.67;;;;;;;7.43;nan;98893.56;5034923;28;20233;-70
2022/09/21 01:32:33;;;;;;;8.57;5.80;;;;;;;7.36;nan;98901.41;5035175;28;20186;-70
2022/09/21 01:35:05;;;;;;;8.03;5.67;;;;;;;7.40;nan;98897.41;5034071;28;20221;-71
2022/09/21 01:37:39;;;;;;;9.00;5.23;;;;;;;7.25;nan;98901.81;5035028;28;20264;-70
2022/09/21 01:40:12;;;;;;;7.13;5.00;;;;;;;7.21;nan;98902.34;5035026;28;20236;-70
2022/09/21 01:42:41;;;;;;;7.73;5.37;;;;;;;7.24;nan;98904.63;5034050;28;20218;-70
2022/09/21 01:45:11;;;;;;;7.73;4.90;;;;;;;7.24;nan;98904.63;5033776;28;20288;-70
2022/09/21 01:47:42;;;;;;;10.57;5.17;;;;;;;7.23;nan;98902.97;5034564;28;20212;-71
2022/09/21 01:50:11;;;;;;;5.03;4.50;;;;;;;7.16;nan;98904.69;5033590;28;20229;-70
2022/09/21 01:52:42;;;;;;;4.90;4.17;;;;;;;7.11;nan;98907.06;5034727;28;20201;-70
2022/09/21 01:55:40;;;;;;;4.57;4.00;;;;;;;7.02;nan;98905.47;5034435;28;20190;-70
2022/09/21 01:58:16;;;;;;;4.97;3.83;;;;;;;7.11;nan;98902.56;5030574;28;20206;-70
2022/09/21 02:00:47;;;;;;;6.43;4.53;;;;;;;7.05;nan;98899.81;5033469;28;20284;-70
2022/09/21 02:03:21;;;;;;;5.63;4.33;;;;;;;6.97;nan;98902.53;5034326;28;20216;-70
2022/09/21 02:05:53;;;;;;;6.07;4.17;;;;;;;6.88;nan;98903.56;5034666;28;20235;-70
2022/09/21 02:08:20;;;;;;;7.17;3.77;;;;;;;6.87;nan;98904.59;5034112;28;20234;-70
2022/09/21 02:10:51;;;;;;;5.67;4.10;;;;;;;6.88;nan;98901.72;5034440;28;20317;-70
2022/09/21 02:13:22;;;;;;;6.33;4.00;;;;;;;6.87;nan;98907.22;5034217;28;20642;-70
2022/09/21 02:15:53;;;;;;;6.30;3.83;;;;;;;6.88;nan;98903.56;5034137;28;20700;-70
2022/09/21 02:18:41;;;;;;;5.60;3.43;;;;;;;6.88;nan;98907.03;5032894;28;20535;-70
2022/09/21 02:21:16;;;;;;;7.10;3.60;;;;;;;6.86;nan;98901.09;5033593;28;20579;-71
2022/09/21 02:23:54;;;;;;;6.00;4.00;;;;;;;6.95;nan;98907.16;5034358;28;20223;-70
2022/09/21 02:26:30;;;;;;;7.77;4.20;;;;;;;6.91;nan;98893.47;5033938;28;20193;-70
2022/09/21 02:29:40;;;;;;;8.63;4.40;;;;;;;6.87;nan;98901.94;5032838;28;20645;-70
2022/09/21 02:32:17;;;;;;;8.67;3.87;;;;;;;6.84;nan;98895.16;5034201;28;20186;-70
2022/09/21 02:34:49;;;;;;;7.00;4.10;;;;;;;6.94;nan;98898.41;5034211;28;20609;-70
2022/09/21 02:37:30;;;;;;;5.87;3.47;;;;;;;6.88;nan;98893.00;5034141;28;20198;-70
2022/09/21 02:40:10;;;;;;;5.57;4.00;;;;;;;6.78;nan;98892.41;5033862;28;20233;-70
2022/09/21 02:42:42;;;;;;;4.93;3.47;;;;;;;6.77;nan;98888.94;5034195;28;20646;-70
2022/09/21 02:45:14;;;;;;;4.10;3.70;;;;;;;6.83;nan;98895.34;5033966;28;20197;-70
2022/09/21 02:47:50;;;;;;;6.00;3.57;;;;;;;6.71;nan;98886.16;5033825;28;20201;-71
2022/09/21 02:50:25;;;;;;;6.20;3.70;;;;;;;6.83;nan;98893.50;5033780;28;20248;-71
2022/09/21 02:52:54;;;;;;;6.37;3.90;;;;;;;6.70;nan;98889.81;5034364;28;20186;-70
2022/09/21 02:55:21;;;;;;;6.60;4.17;;;;;;;6.73;nan;98886.81;5033724;28;20217;-70
2022/09/21 02:57:49;;;;;;;5.33;3.70;;;;;;;6.74;nan;98899.03;5033480;28;20213;-70
2022/09/21 03:00:16;;;;;;;6.00;3.80;;;;;;;6.77;nan;98881.00;5034108;28;20336;-70
2022/09/21 03:02:44;;;;;;;6.67;3.60;;;;;;;6.87;nan;98894.00;5033204;28;20226;-70
2022/09/21 03:05:13;;;;;;;6.43;4.40;;;;;;;6.80;nan;98887.75;5033137;28;20210;-70
2022/09/21 03:07:40;;;;;;;5.17;4.47;;;;;;;6.69;nan;98891.63;5033628;28;20216;-70
2022/09/21 03:10:08;;;;;;;6.33;4.30;;;;;;;6.65;nan;98889.50;5033516;28;20222;-70
2022/09/21 03:12:34;;;;;;;7.20;4.70;;;;;;;6.69;nan;98888.19;5033233;28;20198;-70
2022/09/21 03:15:01;;;;;;;8.00;5.10;;;;;;;6.73;nan;98886.81;5033203;28;20210;-70
2022/09/21 03:17:27;;;;;;;5.73;4.87;;;;;;;6.85;nan;98893.34;5033516;28;20209;-70
2022/09/21 03:19:54;;;;;;;9.30;5.40;;;;;;;6.85;nan;98891.53;5033218;28;20230;-70
2022/09/21 03:22:23;;;;;;;8.90;5.73;;;;;;;6.80;nan;98888.59;5032984;28;20756;-70
2022/09/21 03:24:50;;;;;;;7.67;5.50;;;;;;;6.91;nan;98890.00;5033419;28;20209;-70
2022/09/21 03:27:20;;;;;;;7.43;5.23;;;;;;;6.87;nan;98896.66;5033427;28;20216;-70
2022/09/21 03:29:47;;;;;;;9.73;5.50;;;;;;;6.85;nan;98891.53;5032987;28;20245;-70
2022/09/21 03:32:14;;;;;;;8.10;5.30;;;;;;;6.83;nan;98898.81;5034993;28;20182;-70
2022/09/21 03:34:40;;;;;;;7.53;5.30;;;;;;;6.74;nan;98894.56;5037171;28;20212;-70
2022/09/21 03:37:09;;;;;;;8.40;4.47;;;;;;;6.70;nan;98898.53;5037436;28;20232;-70
2022/09/21 03:39:36;;;;;;;7.37;5.43;;;;;;;6.72;nan;98909.78;5037274;28;20233;-70
2022/09/21 03:42:03;;;;;;;9.97;5.17;;;;;;;6.68;nan;98897.06;5037195;28;20279;-70
2022/09/21 03:44:29;;;;;;;7.43;5.20;;;;;;;6.65;nan;98910.66;5037921;28;20214;-70
2022/09/21 03:46:56;;;;;;;7.97;5.30;;;;;;;6.74;nan;98913.06;5037196;28;20210;-70
2022/09/21 03:49:23;;;;;;;10.67;5.30;;;;;;;6.66;nan;98909.66;5037005;28;20202;-70
2022/09/21 03:51:50;;;;;;;6.63;5.17;;;;;;;6.62;nan;98914.47;5036732;28;20210;-70
2022/09/21 03:54:16;;;;;;;7.67;5.30;;;;;;;6.64;nan;98920.38;5037080;28;20209;-70
2022/09/21 03:56:42;;;;;;;5.50;5.00;;;;;;;6.74;nan;98917.53;5036875;28;20213;-70
2022/09/21 03:59:09;;;;;;;8.03;6.07;;;;;;;6.64;nan;98912.47;5037252;28;20220;-70
2022/09/21 04:01:35;;;;;;;8.43;5.73;;;;;;;6.59;nan;98911.31;5036607;28;20275;-70
2022/09/21 04:04:02;;;;;;;8.63;6.03;;;;;;;6.60;nan;98911.16;5036379;28;20569;-70
2022/09/21 04:06:28;;;;;;;8.47;6.20;;;;;;;6.63;nan;98916.09;5036404;28;20206;-70
2022/09/21 04:08:55;;;;;;;8.73;6.13;;;;;;;6.63;nan;98908.19;5036165;28;20202;-70
2022/09/21 04:11:22;;;;;;;9.10;6.00;;;;;;;6.58;nan;98907.03;5036547;28;20225;-70
2022/09/21 04:13:55;;;;;;;9.77;5.83;;;;;;;6.58;nan;98904.41;5036417;28;20205;-70
2022/09/21 04:16:24;;;;;;;11.90;6.40;;;;;;;6.53;nan;98906.75;5036585;28;20194;-70
2022/09/21 04:18:51;;;;;;;9.47;6.20;;;;;;;6.48;nan;98912.56;5036357;28;20259;-70
2022/09/21 04:21:18;;;;;;;8.63;5.97;;;;;;;6.55;nan;98912.66;5036244;28;20230;-70
2022/09/21 04:23:44;;;;;;;9.37;6.40;;;;;;;6.52;nan;98920.94;5036211;28;20236;-70
2022/09/21 04:26:32;;;;;;;9.90;6.43;;;;;;;6.47;nan;98921.44;5036250;28;20206;-70
2022/09/21 04:28:59;;;;;;;9.97;6.57;;;;;;;6.46;nan;98924.25;5036298;28;20190;-70
2022/09/21 04:31:28;;;;;;;9.27;6.30;;;;;;;6.37;nan;98926.13;5036034;28;20234;-70
2022/09/21 04:33:56;;;;;;;10.87;7.03;;;;;;;6.41;nan;98929.25;5036194;28;20202;-70
2022/09/21 04:36:24;;;;;;;9.37;6.77;;;;;;;6.33;nan;98932.75;5035798;28;20673;-70
2022/09/21 04:38:51;;;;;;;8.43;6.77;;;;;;;6.35;nan;98919.38;5035441;28;20666;-70
2022/09/21 04:41:18;;;;;;;9.43;6.27;;;;;;;6.30;nan;98930.47;5035544;28;20252;-70
2022/09/21 04:43:46;;;;;;;7.97;6.47;;;;;;;6.25;nan;98930.13;5035024;28;20234;-70
2022/09/21 04:46:15;;;;;;;7.80;5.97;;;;;;;6.26;nan;98923.88;5035793;28;20206;-70
2022/09/21 04:48:42;;;;;;;8.93;6.03;;;;;;;6.25;nan;98931.97;5035860;28;20203;-70
2022/09/21 04:51:09;;;;;;;14.30;7.00;;;;;;;6.25;nan;98931.97;5035661;28;20222;-70
2022/09/21 04:53:38;;;;;;;8.50;6.30;;;;;;;6.30;nan;98934.91;5035379;28;20212;-70
2022/09/21 04:56:06;;;;;;;8.17;6.17;;;;;;;6.26;nan;98937.06;5035730;28;20216;-70
2022/09/21 04:58:33;;;;;;;10.43;7.13;;;;;;;6.24;nan;98933.75;5035667;28;20205;-70
2022/09/21 05:01:00;;;;;;;10.70;7.10;;;;;;;6.24;nan;98935.59;5035449;28;20225;-70
2022/09/21 05:03:26;;;;;;;12.60;6.13;;;;;;;6.28;nan;98944.78;5035220;28;20308;-70
2022/09/21 05:05:55;;;;;;;10.87;6.83;;;;;;;6.24;nan;98941.69;5035527;28;20210;-70
2022/09/21 05:10:01;;;;;;;10.07;7.40;;;;;;;6.26;nan;98947.63;5035019;28;20218;-70
2022/09/21 05:11:12;;;;;;;10.07;6.37;;;;;;;6.20;nan;98944.84;5034706;28;20737;-70
2022/09/21 05:13:40;;;;;;;11.17;6.33;;;;;;;6.13;nan;98949.97;5034767;28;20296;-70
2022/09/21 05:16:06;;;;;;;10.97;6.83;;;;;;;6.15;nan;98950.63;5035079;28;20206;-70
2022/09/21 05:18:33;;;;;;;10.43;6.83;;;;;;;6.19;nan;98959.06;5035079;28;20202;-70
2022/09/21 05:21:01;;;;;;;11.27;7.10;;;;;;;6.20;nan;98950.13;5035149;28;20222;-70
2022/09/21 05:23:29;;;;;;;11.77;7.20;;;;;;;6.23;nan;98947.97;5034531;28;20226;-70
2022/09/21 05:25:58;;;;;;;12.10;6.67;;;;;;;6.33;nan;98956.50;5034239;28;20202;-70
2022/09/21 05:28:26;;;;;;;9.97;7.43;;;;;;;6.41;nan;98958.28;5035695;28;20202;-70
2022/09/21 05:30:59;;;;;;;10.50;7.70;;;;;;;6.37;nan;98941.97;5034434;28;20245;-70
2022/09/21 05:33:29;;;;;;;11.57;7.63;;;;;;;6.34;nan;98946.78;5034486;28;20187;-69
2022/09/21 05:36:32;;;;;;;9.70;7.67;;;;;;;6.40;nan;98952.22;5034009;28;20214;-70
2022/09/21 05:38:59;;;;;;;11.50;7.20;;;;;;;6.42;nan;98952.03;5034356;28;20190;-70
2022/09/21 05:41:25;;;;;;;12.67;8.00;;;;;;;6.53;nan;98952.50;5033843;28;20258;-70
2022/09/21 05:43:52;;;;;;;12.43;7.43;;;;;;;6.59;nan;98953.59;5033487;28;20582;-70
2022/09/21 05:46:32;;;;;;;12.03;7.40;;;;;;;6.61;nan;98954.25;5034351;28;20566;-70
2022/09/21 05:49:20;;;;;;;10.83;7.20;;;;;;;6.66;nan;98952.72;5034319;28;20611;-70
2022/09/21 05:52:09;;;;;;;13.37;7.77;;;;;;;6.71;nan;98961.00;5033907;28;20660;-70
2022/09/21 05:54:44;;;;;;;12.50;7.73;;;;;;;6.69;nan;98962.97;5034146;28;20191;-70
2022/09/21 05:57:13;;;;;;;9.27;7.20;;;;;;;6.78;nan;98951.34;5034351;28;20197;-70
2022/09/21 05:59:50;;;;;;;11.40;7.53;;;;;;;6.90;nan;98957.91;5033467;28;20226;-68
2022/09/21 06:02:26;;;;;;;12.00;7.40;;;;;;;7.00;nan;98961.16;5046555;28;20207;-70
2022/09/21 06:04:56;;;;;;;9.97;6.93;;;;;;;7.04;nan;98964.25;5054177;28;20258;-69
2022/09/21 06:07:22;;;;;;;11.00;6.77;;;;;;;7.09;nan;98968.03;5054130;28;20568;-69
2022/09/21 06:09:49;;;;;;;13.60;7.03;;;;;;;7.13;nan;98969.34;5054076;28;20221;-70
2022/09/21 06:12:15;;;;;;;10.60;7.57;;;;;;;7.22;nan;98967.44;5053584;28;20205;-70
2022/09/21 06:14:41;;;;;;;13.43;7.30;;;;;;;7.30;nan;98972.69;5053913;28;20205;-70
2022/09/21 06:17:08;;;;;;;8.00;6.80;;;;;;;7.30;nan;98975.34;5053735;28;20217;-69
2022/09/21 06:19:34;;;;;;;12.60;6.77;;;;;;;7.29;nan;98981.63;5053489;28;20579;-70
2022/09/21 06:22:01;;;;;;;10.17;7.43;;;;;;;7.36;nan;98980.75;5053751;28;20209;-70
2022/09/21 06:24:27;;;;;;;8.27;6.57;;;;;;;7.54;nan;98980.44;5053550;28;20252;-70
2022/09/21 06:26:53;;;;;;;11.57;8.00;;;;;;;7.44;nan;98985.16;5053638;28;20205;-70
2022/09/21 06:29:22;;;;;;;10.10;7.63;;;;;;;7.44;nan;98987.81;5053210;28;20211;-69
2022/09/21 06:31:50;;;;;;;10.57;7.27;;;;;;;7.58;nan;98984.38;5053297;28;20584;-69
2022/09/21 06:34:17;;;;;;;9.70;7.93;;;;;;;7.47;nan;98984.81;5053183;28;20607;-69
2022/09/21 06:36:44;;;;;;;12.13;7.70;;;;;;;7.53;nan;98984.09;5053104;28;20295;-69
2022/09/21 06:39:11;;;;;;;9.70;7.50;;;;;;;7.62;nan;98980.38;5053069;28;20315;-69
2022/09/21 06:41:37;;;;;;;12.50;8.00;;;;;;;7.60;nan;98977.91;5053231;28;20201;-70
2022/09/21 06:44:04;;;;;;;10.00;7.30;;;;;;;7.64;nan;98975.75;5053154;28;20225;-69
2022/09/21 06:46:30;;;;;;;9.17;8.00;;;;;;;7.71;nan;98984.59;5053433;28;20209;-70
2022/09/21 06:48:57;;;;;;;11.40;7.63;;;;;;;7.76;nan;98987.53;5053143;28;20209;-69
2022/09/21 06:51:23;;;;;;;10.57;7.50;;;;;;;7.84;nan;98984.84;5052758;28;20229;-71
2022/09/21 06:53:55;;;;;;;14.13;8.10;;;;;;;7.90;nan;98986.75;5052979;28;20672;-71
2022/09/21 06:56:21;;;;;;;10.83;7.80;;;;;;;8.00;nan;98980.19;5052862;28;20584;-71
2022/09/21 06:58:47;;;;;;;14.83;8.87;;;;;;;7.95;nan;98990.50;5052866;28;20205;-71
2022/09/21 07:01:15;;;;;;;11.90;7.87;;;;;;;8.00;nan;98982.03;5053774;28;20247;-71
2022/09/21 07:03:43;;;;;;;11.83;7.70;;;;;;;8.09;nan;98983.59;5052215;28;20695;-71
2022/09/21 07:06:13;;;;;;;11.27;7.90;;;;;;;8.14;nan;98987.34;5053530;28;20209;-71
2022/09/21 07:08:39;;;;;;;12.63;7.63;;;;;;;8.22;nan;98987.31;5053177;28;20237;-71
2022/09/21 07:11:06;;;;;;;9.07;7.37;;;;;;;8.30;nan;98979.28;5052927;28;20279;-72
2022/09/21 07:13:32;;;;;;;12.33;7.43;;;;;;;8.39;nan;98980.84;5052927;28;20201;-72
2022/09/21 07:16:04;;;;;;;12.20;7.77;;;;;;;8.38;nan;98976.50;5053032;28;20208;-72
2022/09/21 07:18:30;;;;;;;10.57;6.93;;;;;;;8.48;nan;98978.91;5053332;28;20273;-71
2022/09/21 07:20:56;;;;;;;11.03;7.73;;;;;;;8.54;nan;98980.81;5052757;28;20229;-71
2022/09/21 07:23:23;;;;;;;11.13;7.83;;;;;;;8.63;nan;98985.00;5052794;28;20232;-71
2022/09/21 07:25:51;;;;;;;10.50;7.40;;;;;;;8.70;nan;98984.13;5053272;28;20211;-71
2022/09/21 07:28:18;;;;;;;11.33;7.80;;;;;;;8.80;nan;98978.50;5052841;28;20255;-71
2022/09/21 07:30:45;;;;;;;10.33;7.47;;;;;;;8.73;nan;98982.91;5052436;28;20241;-71
2022/09/21 07:33:11;;;;;;;10.57;7.67;;;;;;;8.78;nan;98988.50;5052789;28;20213;-72
2022/09/21 07:35:38;;;;;;;10.03;7.43;;;;;;;9.00;nan;98992.84;5052780;28;20205;-72
2022/09/21 07:38:07;;;;;;;12.83;7.93;;;;;;;8.90;nan;98992.28;5052526;28;20208;-72
2022/09/21 07:40:35;;;;;;;11.43;7.83;;;;;;;9.01;nan;98989.97;5052580;28;20589;-72
2022/09/21 07:43:02;;;;;;;9.00;7.00;;;;;;;9.05;nan;98990.47;5052183;28;20229;-72
2022/09/21 07:45:29;;;;;;;10.10;7.90;;;;;;;9.11;nan;98995.00;5052796;28;20213;-71
2022/09/21 07:47:56;;;;;;;10.67;7.73;;;;;;;9.21;nan;98992.88;5052924;28;20212;-71
2022/09/21 07:50:23;;;;;;;13.67;7.70;;;;;;;9.31;nan;99001.34;5052747;28;20253;-71
2022/09/21 07:52:49;;;;;;;9.43;7.83;;;;;;;9.38;nan;98994.28;5052342;28;20205;-71
2022/09/21 07:55:16;;;;;;;9.83;6.50;;;;;;;9.42;nan;98990.25;5053643;28;20216;-71
2022/09/21 08:00:28;;;;;;;7.40;5.73;;;;;;;9.60;nan;98993.28;5052576;28;20851;-71
2022/09/21 08:02:54;;;;;;;7.87;5.77;;;;;;;9.81;nan;98995.91;5052156;28;20707;-72
2022/09/21 08:05:20;;;;;;;7.43;5.57;;;;;;;9.94;nan;99004.81;5052581;28;20217;-72
2022/09/21 08:07:47;;;;;;;10.47;6.33;;;;;;;9.84;nan;98996.38;5052528;28;20209;-72
2022/09/21 08:10:13;;;;;;;6.80;4.80;;;;;;;10.00;nan;99000.59;5052619;28;20227;-72
2022/09/21 08:12:39;;;;;;;7.90;5.03;;;;;;;10.18;nan;98999.13;5052748;28;20205;-72
2022/09/21 08:15:06;;;;;;;7.30;5.10;;;;;;;10.13;nan;98998.88;5052700;28;20205;-72
2022/09/21 08:17:33;;;;;;;6.50;5.33;;;;;;;10.30;nan;98996.75;5052708;28;20209;-71
2022/09/21 08:19:59;;;;;;;6.27;5.00;;;;;;;10.24;nan;99000.19;5055578;28;20229;-71
2022/09/21 08:22:25;;;;;;;7.03;5.53;;;;;;;10.22;nan;99008.34;5044279;28;20204;-71
2022/09/21 08:24:52;;;;;;;7.53;5.27;;;;;;;10.51;nan;99005.47;5035736;28;20704;-71
2022/09/21 08:27:19;;;;;;;6.40;4.93;;;;;;;10.49;nan;99009.34;5035967;28;20300;-72
2022/09/21 08:29:46;;;;;;;6.83;4.73;;;;;;;10.62;nan;99001.44;5047515;28;20240;-71
2022/09/21 08:32:12;;;;;;;6.77;4.33;;;;;;;10.72;nan;99004.56;5056091;28;20209;-71
2022/09/21 08:34:38;;;;;;;10.60;4.53;;;;;;;10.72;nan;98993.91;5055961;28;20202;-71
2022/09/21 08:37:05;;;;;;;7.60;4.57;;;;;;;10.66;nan;98997.38;5056090;28;20201;-72
2022/09/21 08:39:31;;;;;;;5.27;4.40;;;;;;;10.86;nan;98995.66;5056032;28;20269;-71
2022/09/21 08:42:13;;;;;;;5.67;4.40;;;;;;;10.94;nan;98995.47;5055994;28;20201;-72
2022/09/21 08:44:48;;;;;;;5.03;4.47;;;;;;;10.86;nan;98998.31;5055113;28;20217;-71
2022/09/21 08:47:23;;;;;;;7.03;4.33;;;;;;;10.83;nan;99002.19;5055614;28;20185;-72
2022/09/21 08:49:57;;;;;;;7.00;4.33;;;;;;;11.14;nan;98999.03;5054794;28;20224;-71
2022/09/21 08:52:26;;;;;;;7.20;4.30;;;;;;;11.19;nan;98996.59;5055816;28;20197;-71
2022/09/21 08:55:01;;;;;;;5.97;4.30;;;;;;;11.30;nan;98995.19;5055898;28;20203;-72
2022/09/21 08:57:33;;;;;;;5.47;4.20;;;;;;;11.50;nan;98996.88;5055336;28;20197;-71
2022/09/21 09:00:06;;;;;;;5.30;4.07;;;;;;;11.50;nan;98991.56;5055341;28;20229;-72
2022/09/21 09:02:54;;;;;;;7.37;4.67;;;;;;;11.60;nan;98989.34;5055693;28;20193;-72
2022/09/21 09:05:25;;;;;;;5.70;4.23;;;;;;;11.77;nan;98989.78;5055786;28;20189;-71
2022/09/21 09:08:18;;;;;;;4.97;4.20;;;;;;;11.82;nan;98989.97;5054359;28;20255;-71
2022/09/21 09:10:58;;;;;;;6.53;4.27;;;;;;;12.11;nan;98985.06;5055097;28;20324;-71
2022/09/21 09:13:30;;;;;;;6.13;4.17;;;;;;;;;;5055081;28;20193;-71
2022/09/21 09:16:27;;;;;;;5.23;3.20;;;;;;;12.35;nan;98984.41;5055329;28;20212;-71
2022/09/21 09:19:32;;;;;;;3.57;2.93;;;;;;;12.25;nan;98984.03;5055469;28;20186;-71
2022/09/21 09:22:01;;;;;;;5.53;2.90;;;;;;;12.28;nan;98978.28;5032858;28;20222;-71
2022/09/21 09:24:28;;;;;;;2.80;1.73;;;;;;;12.71;nan;98982.06;5032711;28;20226;-71
2022/09/21 09:27:33;;;;;;;2.73;1.50;;;;;;;12.83;nan;98976.91;5043805;28;20206;-71
2022/09/21 09:30:13;;;;;;;5.33;1.90;;;;;;;13.08;nan;98968.03;5054730;28;20236;-71
2022/09/21 09:33:00;;;;;;;5.03;1.77;;;;;;;12.97;nan;98966.00;5055642;28;20198;-71
2022/09/21 09:35:48;;;;;;;3.13;1.70;;;;;;;13.10;nan;98973.97;5053949;28;20197;-71
2022/09/21 09:38:27;;;;;;;6.23;1.93;;;;;;;13.14;nan;98974.34;5053597;28;20212;-71
2022/09/21 09:41:12;;;;;;;2.60;1.40;;;;;;;13.29;nan;98966.91;5053841;28;20230;-70
2022/09/21 09:44:02;;;;;;;3.70;1.27;;;;;;;13.44;nan;98967.41;5055026;28;20687;-71
2022/09/21 09:46:30;;;;;;;1.77;1.00;;;;;;;13.56;nan;98973.72;5054454;28;20644;-71
2022/09/21 09:49:33;;;;;;;3.70;1.23;;;;;;;13.66;nan;98969.50;5054497;28;20258;-71
2022/09/21 09:51:59;;;;;;;1.57;1.00;;;;;;;13.71;nan;98974.22;5022903;28;20215;-71
2022/09/21 09:54:29;;;;;;;2.80;1.00;;;;;;;13.71;nan;98969.69;5054622;28;20212;-69
2022/09/21 09:56:55;;;;;;;1.57;1.10;;;;;;;13.54;nan;98955.22;5054316;28;20208;-68
2022/09/21 09:59:34;;;;;;;1.03;0.90;;;;;;;13.58;nan;98959.13;5053892;28;20205;-68
2022/09/21 10:02:03;;;;;;;1.10;0.90;;;;;;;14.01;nan;98961.84;5054244;28;20193;-69
2022/09/21 10:04:30;;;;;;;1.67;0.80;;;;;;;13.79;nan;98955.25;5053727;28;20221;-69
2022/09/21 10:06:56;;;;;;;1.93;1.43;;;;;;;13.83;nan;98951.13;5054322;28;20270;-70
2022/09/21 10:09:32;;;;;;;3.23;1.70;;;;;;;14.11;nan;98949.63;5054082;28;20304;-70
2022/09/21 10:12:01;;;;;;;2.60;1.80;;;;;;;14.27;nan;98951.78;5053936;28;20204;-70
2022/09/21 10:14:34;;;;;;;2.03;0.80;;;;;;;14.18;nan;98947.72;5053842;28;20201;-70
2022/09/21 10:17:07;;;;;;;2.63;2.43;;;;;;;14.26;nan;98947.47;5054667;28;20207;-71
2022/09/21 10:19:34;;;;;;;3.70;2.50;;;;;;;14.26;nan;98944.78;5052806;28;20233;-70
2022/09/21 10:22:03;;;;;;;2.27;1.43;;;;;;;14.27;nan;98943.75;5053898;28;20208;-70
2022/09/21 10:24:33;;;;;;;2.40;1.20;;;;;;;14.79;nan;98939.69;5053935;28;20592;-71
2022/09/21 10:27:26;;;;;;;2.90;2.10;;;;;;;14.94;nan;98930.22;5054383;28;20226;-71
2022/09/21 10:29:53;;;;;;;1.23;1.00;;;;;;;15.18;nan;98925.78;5053269;28;20243;-69
2022/09/21 10:32:22;;;;;;;2.60;1.43;;;;;;;15.27;nan;98921.72;5053726;28;20205;-70
2022/09/21 10:35:14;;;;;;;3.83;1.87;;;;;;;15.25;nan;98930.00;5053345;28;20205;-70
2022/09/21 10:37:43;;;;;;;4.27;2.10;;;;;;;15.27;nan;98925.25;5053345;28;20189;-69
2022/09/21 10:40:35;;;;;;;2.80;1.77;;;;;;;15.52;nan;98923.22;5053489;28;20228;-70
2022/09/21 10:43:01;;;;;;;3.47;2.20;;;;;;;15.59;nan;98921.28;5053321;28;20687;-69
2022/09/21 10:45:35;;;;;;;7.40;4.43;;;;;;;14.97;nan;98919.03;5053000;28;20225;-69
2022/09/21 10:48:16;;;;;;;2.77;2.23;;;;;;;14.73;nan;98917.31;5053499;28;20201;-69
2022/09/21 10:50:45;;;;;;;3.40;2.23;;;;;;;14.37;nan;98922.66;5053235;28;20726;-68
2022/09/21 10:53:33;;;;;;;3.40;2.47;;;;;;;14.16;nan;98925.69;5053318;28;20232;-70
2022/09/21 10:56:06;;;;;;;3.60;2.20;;;;;;;14.05;nan;98921.09;5052978;28;20565;-70
2022/09/21 10:58:34;;;;;;;3.80;2.10;;;;;;;13.86;nan;98918.59;5053285;28;20185;-69
2022/09/21 11:01:31;;;;;;;2.30;1.80;;;;;;;13.90;nan;98917.94;5053297;28;20225;-69
2022/09/21 11:04:07;;;;;;;2.63;1.73;;;;;;;13.87;nan;98921.03;5052586;28;20225;-69
2022/09/21 11:06:43;;;;;;;5.70;1.90;;;;;;;13.99;nan;98919.31;5051860;28;20185;-69
2022/09/21 11:09:33;;;;;;;2.10;1.60;;;;;;;13.84;nan;98921.47;5053001;28;20223;-69
2022/09/21 11:12:39;;;;;;;2.97;1.70;;;;;;;13.63;nan;98921.88;5052579;28;20287;-69
2022/09/21 11:15:32;;;;;;;2.47;1.70;;;;;;;13.68;nan;98919.38;5053717;28;20613;-70
2022/09/21 11:18:13;;;;;;;2.00;1.53;;;;;;;13.75;nan;98922.78;5053204;28;20185;-70
2022/09/21 11:20:58;;;;;;;2.73;1.80;;;;;;;13.77;nan;98922.56;5051562;28;20311;-70
2022/09/21 11:23:33;;;;;;;3.27;1.43;;;;;;;13.91;nan;98913.41;5051259;28;20651;-70
2022/09/21 11:26:21;;;;;;;8.20;4.70;;;;;;;13.92;nan;98915.03;5052608;28;20192;-71
2022/09/21 11:28:55;;;;;;;3.97;1.30;;;;;;;14.21;nan;98907.19;5051273;28;20197;-70
2022/09/21 11:31:49;;;;;;;2.23;1.33;;;;;;;14.46;nan;98899.09;5052215;28;20240;-70
2022/09/21 11:34:34;;;;;;;2.90;1.40;;;;;;;14.16;nan;98896.28;5051470;28;20189;-70
2022/09/21 11:37:04;;;;;;;8.83;6.57;;;;;;;14.35;nan;98894.50;5052765;28;20227;-71
2022/09/21 11:39:54;;;;;;;2.37;2.10;;;;;;;14.41;nan;98890.91;5052368;28;20232;-70
2022/09/21 11:42:26;;;;;;;2.10;1.10;;;;;;;15.04;nan;98882.31;5052924;28;20193;-70
2022/09/21 11:44:55;;;;;;;2.10;1.40;;;;;;;14.96;nan;98887.13;5052428;28;20232;-70
2022/09/21 11:47:51;;;;;;;2.17;1.10;;;;;;;14.91;nan;98885.16;5052961;28;20657;-70
2022/09/21 11:50:53;;;;;;;1.40;1.00;;;;;;;14.80;nan;98877.06;5052798;28;20229;-70
2022/09/21 11:53:32;;;;;;;2.83;0.87;;;;;;;14.73;nan;98879.81;5053010;28;20629;-70
2022/09/21 11:56:16;;;;;;;1.23;0.60;;;;;;;14.57;nan;98866.25;5057538;28;20185;-70
2022/09/21 11:59:12;;;;;;;1.60;1.00;;;;;;;14.60;nan;98871.16;5056145;28;20563;-70
2022/09/21 12:01:54;;;;;;;1.27;0.97;;;;;;;14.85;nan;98869.16;5055811;28;20324;-70
2022/09/21 12:04:54;;;;;;;1.83;1.13;;;;;;;15.08;nan;98874.63;5056400;28;20316;-70
2022/09/21 12:07:29;;;;;;;2.33;1.77;;;;;;;14.95;nan;98869.44;5056303;28;20694;-70
2022/09/21 12:10:26;;;;;;;1.70;1.60;;;;;;;14.77;nan;98866.81;5056666;28;20225;-70
2022/09/21 12:13:36;;;;;;;2.47;0.83;;;;;;;14.78;nan;98871.09;5055585;28;20189;-70
2022/09/21 12:16:16;;;;;;;2.43;0.70;;;;;;;14.68;nan;98863.63;5055248;28;20559;-70
2022/09/21 12:19:04;;;;;;;1.57;0.70;;;;;;;14.85;nan;98859.28;5056290;28;20206;-70
2022/09/21 12:21:36;;;;;;;1.53;0.97;;;;;;;15.06;nan;98857.97;5038745;28;20228;-70
2022/09/21 12:24:17;;;;;;;1.37;1.13;;;;;;;15.20;nan;98849.50;5055760;28;20220;-71